sensor_id;sensor_type;location;lat;lon;timestamp;P1;durP1;ratioP1;P2;durP2;ratioP2
15536;SDS011;7870;52.448;13.270;2023-02-15T00:00:53;39.05;;;29.45;;
15536;SDS011;7870;52.448;13.270;2023-02-15T00:03:23;41.17;;;29.83;;
15536;SDS011;7870;52.448;13.270;2023-02-15T00:05:49;40.03;;;29.60;;
15536;SDS011;7870;52.448;13.270;2023-02-15T00:08:16;45.30;;;29.33;;
15536;SDS011;7870;52.448;13.270;2023-02-15T00:10:42;41.70;;;29.00;;
15536;SDS011;7870;52.448;13.270;2023-02-15T00:13:09;42.13;;;30.65;;
15536;SDS011;7870;52.448;13.270;2023-02-15T00:15:35;43.65;;;29.98;;
15536;SDS011;7870;52.448;13.270;2023-02-15T00:18:02;45.08;;;29.98;;
15536;SDS011;7870;52.448;13.270;2023-02-15T00:20:28;44.00;;;30.25;;
15536;SDS011;7870;52.448;13.270;2023-02-15T00:22:55;42.40;;;29.88;;
15536;SDS011;7870;52.448;13.270;2023-02-15T00:25:21;43.10;;;30.00;;
15536;SDS011;7870;52.448;13.270;2023-02-15T00:27:48;47.03;;;32.58;;
15536;SDS011;7870;52.448;13.270;2023-02-15T00:30:15;44.75;;;30.48;;
15536;SDS011;7870;52.448;13.270;2023-02-15T00:32:41;46.95;;;31.75;;
15536;SDS011;7870;52.448;13.270;2023-02-15T00:35:08;44.50;;;30.05;;
15536;SDS011;7870;52.448;13.270;2023-02-15T00:37:35;45.47;;;31.00;;
15536;SDS011;7870;52.448;13.270;2023-02-15T00:40:01;45.95;;;30.75;;
15536;SDS011;7870;52.448;13.270;2023-02-15T00:42:29;42.72;;;29.25;;
15536;SDS011;7870;52.448;13.270;2023-02-15T00:44:55;45.63;;;30.30;;
15536;SDS011;7870;52.448;13.270;2023-02-15T00:47:22;42.47;;;29.80;;
15536;SDS011;7870;52.448;13.270;2023-02-15T00:49:50;42.97;;;30.55;;
15536;SDS011;7870;52.448;13.270;2023-02-15T00:52:17;45.17;;;29.23;;
15536;SDS011;7870;52.448;13.270;2023-02-15T00:54:43;43.25;;;30.15;;
15536;SDS011;7870;52.448;13.270;2023-02-15T00:57:10;44.28;;;30.67;;
15536;SDS011;7870;52.448;13.270;2023-02-15T00:59:36;49.38;;;33.33;;
15536;SDS011;7870;52.448;13.270;2023-02-15T01:02:03;47.42;;;32.15;;
15536;SDS011;7870;52.448;13.270;2023-02-15T01:04:29;48.53;;;31.80;;
15536;SDS011;7870;52.448;13.270;2023-02-15T01:06:56;50.25;;;33.03;;
15536;SDS011;7870;52.448;13.270;2023-02-15T01:09:23;49.40;;;31.77;;
15536;SDS011;7870;52.448;13.270;2023-02-15T01:11:49;45.95;;;31.13;;
15536;SDS011;7870;52.448;13.270;2023-02-15T01:14:17;45.08;;;30.63;;
15536;SDS011;7870;52.448;13.270;2023-02-15T01:16:44;41.83;;;28.83;;
15536;SDS011;7870;52.448;13.270;2023-02-15T01:19:10;51.35;;;31.70;;
15536;SDS011;7870;52.448;13.270;2023-02-15T01:21:38;48.55;;;32.58;;
15536;SDS011;7870;52.448;13.270;2023-02-15T01:24:11;44.15;;;29.88;;
15536;SDS011;7870;52.448;13.270;2023-02-15T01:29:05;43.85;;;29.42;;
15536;SDS011;7870;52.448;13.270;2023-02-15T01:31:32;43.72;;;29.02;;
15536;SDS011;7870;52.448;13.270;2023-02-15T01:33:59;49.97;;;33.33;;
15536;SDS011;7870;52.448;13.270;2023-02-15T01:36:25;46.88;;;31.13;;
15536;SDS011;7870;52.448;13.270;2023-02-15T01:38:52;48.20;;;31.55;;
15536;SDS011;7870;52.448;13.270;2023-02-15T01:41:18;47.88;;;31.63;;
15536;SDS011;7870;52.448;13.270;2023-02-15T01:43:59;50.95;;;31.30;;
15536;SDS011;7870;52.448;13.270;2023-02-15T01:46:40;51.88;;;32.35;;
15536;SDS011;7870;52.448;13.270;2023-02-15T01:49:13;44.42;;;29.80;;
15536;SDS011;7870;52.448;13.270;2023-02-15T01:51:42;44.17;;;30.65;;
15536;SDS011;7870;52.448;13.270;2023-02-15T01:54:20;45.63;;;31.55;;
15536;SDS011;7870;52.448;13.270;2023-02-15T01:56:51;43.55;;;30.48;;
15536;SDS011;7870;52.448;13.270;2023-02-15T01:59:19;46.15;;;30.75;;
15536;SDS011;7870;52.448;13.270;2023-02-15T02:01:48;40.97;;;29.20;;
15536;SDS011;7870;52.448;13.270;2023-02-15T02:04:17;48.22;;;30.98;;
15536;SDS011;7870;52.448;13.270;2023-02-15T02:06:50;44.40;;;29.98;;
15536;SDS011;7870;52.448;13.270;2023-02-15T02:09:17;47.17;;;30.83;;
15536;SDS011;7870;52.448;13.270;2023-02-15T02:11:44;50.60;;;31.85;;
15536;SDS011;7870;52.448;13.270;2023-02-15T02:14:12;50.50;;;33.08;;
15536;SDS011;7870;52.448;13.270;2023-02-15T02:17:00;53.45;;;34.80;;
15536;SDS011;7870;52.448;13.270;2023-02-15T02:19:56;54.15;;;33.30;;
15536;SDS011;7870;52.448;13.270;2023-02-15T02:34:34;48.28;;;31.60;;
15536;SDS011;7870;52.448;13.270;2023-02-15T02:37:20;51.47;;;31.70;;
15536;SDS011;7870;52.448;13.270;2023-02-15T02:39:55;51.78;;;33.10;;
15536;SDS011;7870;52.448;13.270;2023-02-15T02:42:40;48.30;;;33.25;;
15536;SDS011;7870;52.448;13.270;2023-02-15T02:45:09;57.70;;;35.83;;
15536;SDS011;7870;52.448;13.270;2023-02-15T02:47:48;56.58;;;37.58;;
15536;SDS011;7870;52.448;13.270;2023-02-15T02:50:21;59.83;;;35.55;;
15536;SDS011;7870;52.448;13.270;2023-02-15T02:52:49;55.42;;;34.28;;
15536;SDS011;7870;52.448;13.270;2023-02-15T03:00:46;51.55;;;35.75;;
15536;SDS011;7870;52.448;13.270;2023-02-15T03:03:29;63.50;;;36.97;;
15536;SDS011;7870;52.448;13.270;2023-02-15T03:05:59;55.30;;;35.45;;
15536;SDS011;7870;52.448;13.270;2023-02-15T03:08:38;55.03;;;35.97;;
15536;SDS011;7870;52.448;13.270;2023-02-15T03:11:08;55.30;;;35.25;;
15536;SDS011;7870;52.448;13.270;2023-02-15T03:13:36;52.55;;;34.42;;
15536;SDS011;7870;52.448;13.270;2023-02-15T03:16:04;47.88;;;32.60;;
15536;SDS011;7870;52.448;13.270;2023-02-15T03:18:51;60.95;;;36.88;;
15536;SDS011;7870;52.448;13.270;2023-02-15T03:24:24;66.43;;;41.95;;
15536;SDS011;7870;52.448;13.270;2023-02-15T03:26:54;66.78;;;42.50;;
15536;SDS011;7870;52.448;13.270;2023-02-15T03:29:22;71.70;;;44.13;;
15536;SDS011;7870;52.448;13.270;2023-02-15T03:31:53;69.03;;;41.13;;
15536;SDS011;7870;52.448;13.270;2023-02-15T03:34:22;73.95;;;45.38;;
15536;SDS011;7870;52.448;13.270;2023-02-15T03:37:04;77.93;;;46.92;;
15536;SDS011;7870;52.448;13.270;2023-02-15T03:39:56;80.25;;;46.50;;
15536;SDS011;7870;52.448;13.270;2023-02-15T03:43:16;74.47;;;43.88;;
15536;SDS011;7870;52.448;13.270;2023-02-15T03:45:45;83.00;;;47.97;;
15536;SDS011;7870;52.448;13.270;2023-02-15T03:48:22;79.10;;;46.25;;
15536;SDS011;7870;52.448;13.270;2023-02-15T03:51:00;79.45;;;48.05;;
15536;SDS011;7870;52.448;13.270;2023-02-15T03:53:48;81.75;;;49.63;;
15536;SDS011;7870;52.448;13.270;2023-02-15T03:56:16;76.28;;;47.78;;
15536;SDS011;7870;52.448;13.270;2023-02-15T03:58:42;84.63;;;48.38;;
15536;SDS011;7870;52.448;13.270;2023-02-15T04:01:33;85.97;;;50.00;;
15536;SDS011;7870;52.448;13.270;2023-02-15T04:04:28;77.55;;;47.15;;
15536;SDS011;7870;52.448;13.270;2023-02-15T04:06:59;81.15;;;47.05;;
15536;SDS011;7870;52.448;13.270;2023-02-15T04:09:26;87.20;;;50.78;;
15536;SDS011;7870;52.448;13.270;2023-02-15T04:12:11;88.70;;;49.83;;
15536;SDS011;7870;52.448;13.270;2023-02-15T04:14:37;84.43;;;50.95;;
15536;SDS011;7870;52.448;13.270;2023-02-15T04:17:22;89.75;;;50.08;;
15536;SDS011;7870;52.448;13.270;2023-02-15T04:19:49;82.63;;;47.47;;
15536;SDS011;7870;52.448;13.270;2023-02-15T04:22:34;79.35;;;47.45;;
15536;SDS011;7870;52.448;13.270;2023-02-15T04:25:19;85.30;;;48.60;;
15536;SDS011;7870;52.448;13.270;2023-02-15T04:27:53;78.45;;;46.40;;
15536;SDS011;7870;52.448;13.270;2023-02-15T04:30:21;80.07;;;47.35;;
15536;SDS011;7870;52.448;13.270;2023-02-15T04:32:49;73.88;;;47.28;;
15536;SDS011;7870;52.448;13.270;2023-02-15T04:35:15;83.35;;;48.03;;
15536;SDS011;7870;52.448;13.270;2023-02-15T04:37:42;79.47;;;47.33;;
15536;SDS011;7870;52.448;13.270;2023-02-15T04:40:10;84.68;;;50.22;;
15536;SDS011;7870;52.448;13.270;2023-02-15T04:42:38;82.00;;;49.42;;
15536;SDS011;7870;52.448;13.270;2023-02-15T04:45:05;77.05;;;46.22;;
15536;SDS011;7870;52.448;13.270;2023-02-15T04:47:32;87.13;;;50.08;;
15536;SDS011;7870;52.448;13.270;2023-02-15T04:49:59;83.20;;;49.17;;
15536;SDS011;7870;52.448;13.270;2023-02-15T04:52:25;86.63;;;49.97;;
15536;SDS011;7870;52.448;13.270;2023-02-15T04:54:52;75.35;;;45.92;;
15536;SDS011;7870;52.448;13.270;2023-02-15T04:57:18;74.43;;;46.55;;
15536;SDS011;7870;52.448;13.270;2023-02-15T04:59:45;78.97;;;47.50;;
15536;SDS011;7870;52.448;13.270;2023-02-15T05:02:11;79.57;;;47.20;;
15536;SDS011;7870;52.448;13.270;2023-02-15T05:04:38;82.20;;;48.30;;
15536;SDS011;7870;52.448;13.270;2023-02-15T05:07:04;80.88;;;46.13;;
15536;SDS011;7870;52.448;13.270;2023-02-15T05:09:31;78.00;;;47.05;;
15536;SDS011;7870;52.448;13.270;2023-02-15T05:11:57;78.25;;;45.90;;
15536;SDS011;7870;52.448;13.270;2023-02-15T05:14:24;81.57;;;47.75;;
15536;SDS011;7870;52.448;13.270;2023-02-15T05:16:51;85.70;;;50.25;;
15536;SDS011;7870;52.448;13.270;2023-02-15T05:19:17;82.90;;;48.78;;
15536;SDS011;7870;52.448;13.270;2023-02-15T05:21:44;79.32;;;45.83;;
15536;SDS011;7870;52.448;13.270;2023-02-15T05:24:10;82.43;;;47.83;;
15536;SDS011;7870;52.448;13.270;2023-02-15T05:26:55;94.20;;;52.83;;
15536;SDS011;7870;52.448;13.270;2023-02-15T05:29:40;83.57;;;47.90;;
15536;SDS011;7870;52.448;13.270;2023-02-15T05:32:07;93.10;;;51.83;;
15536;SDS011;7870;52.448;13.270;2023-02-15T05:34:34;87.40;;;49.05;;
15536;SDS011;7870;52.448;13.270;2023-02-15T05:37:00;95.38;;;51.35;;
15536;SDS011;7870;52.448;13.270;2023-02-15T05:39:27;98.63;;;51.00;;
15536;SDS011;7870;52.448;13.270;2023-02-15T05:41:53;94.45;;;50.10;;
15536;SDS011;7870;52.448;13.270;2023-02-15T05:44:20;102.25;;;49.28;;
15536;SDS011;7870;52.448;13.270;2023-02-15T05:46:46;100.43;;;50.88;;
15536;SDS011;7870;52.448;13.270;2023-02-15T05:49:13;107.70;;;49.80;;
15536;SDS011;7870;52.448;13.270;2023-02-15T05:51:39;294.52;;;68.55;;
15536;SDS011;7870;52.448;13.270;2023-02-15T05:54:06;267.80;;;59.28;;
15536;SDS011;7870;52.448;13.270;2023-02-15T05:56:33;228.40;;;51.15;;
15536;SDS011;7870;52.448;13.270;2023-02-15T05:58:59;404.50;;;64.22;;
15536;SDS011;7870;52.448;13.270;2023-02-15T06:01:26;246.32;;;51.97;;
15536;SDS011;7870;52.448;13.270;2023-02-15T06:03:52;168.63;;;50.83;;
15536;SDS011;7870;52.448;13.270;2023-02-15T06:06:20;235.35;;;51.38;;
15536;SDS011;7870;52.448;13.270;2023-02-15T06:08:47;409.58;;;66.22;;
15536;SDS011;7870;52.448;13.270;2023-02-15T06:11:13;249.52;;;53.08;;
15536;SDS011;7870;52.448;13.270;2023-02-15T06:13:40;349.65;;;60.72;;
15536;SDS011;7870;52.448;13.270;2023-02-15T06:16:07;175.43;;;52.60;;
15536;SDS011;7870;52.448;13.270;2023-02-15T06:18:34;370.85;;;63.15;;
15536;SDS011;7870;52.448;13.270;2023-02-15T06:21:01;348.98;;;67.68;;
15536;SDS011;7870;52.448;13.270;2023-02-15T06:23:28;136.75;;;51.13;;
15536;SDS011;7870;52.448;13.270;2023-02-15T06:25:54;282.77;;;54.67;;
15536;SDS011;7870;52.448;13.270;2023-02-15T06:28:21;351.67;;;59.17;;
15536;SDS011;7870;52.448;13.270;2023-02-15T06:30:48;655.58;;;89.25;;
15536;SDS011;7870;52.448;13.270;2023-02-15T06:33:14;605.83;;;80.20;;
15536;SDS011;7870;52.448;13.270;2023-02-15T06:35:41;370.58;;;67.60;;
15536;SDS011;7870;52.448;13.270;2023-02-15T06:38:07;476.17;;;67.97;;
15536;SDS011;7870;52.448;13.270;2023-02-15T06:40:34;124.95;;;45.08;;
15536;SDS011;7870;52.448;13.270;2023-02-15T06:43:01;339.55;;;57.85;;
15536;SDS011;7870;52.448;13.270;2023-02-15T06:45:27;374.92;;;59.20;;
15536;SDS011;7870;52.448;13.270;2023-02-15T06:47:54;445.70;;;70.45;;
15536;SDS011;7870;52.448;13.270;2023-02-15T06:50:20;247.63;;;49.28;;
15536;SDS011;7870;52.448;13.270;2023-02-15T06:52:47;139.27;;;42.67;;
15536;SDS011;7870;52.448;13.270;2023-02-15T06:55:13;200.27;;;46.70;;
15536;SDS011;7870;52.448;13.270;2023-02-15T06:57:40;168.30;;;44.15;;
15536;SDS011;7870;52.448;13.270;2023-02-15T07:00:06;179.20;;;48.50;;
15536;SDS011;7870;52.448;13.270;2023-02-15T07:02:34;158.82;;;44.40;;
15536;SDS011;7870;52.448;13.270;2023-02-15T07:05:00;128.60;;;44.78;;
15536;SDS011;7870;52.448;13.270;2023-02-15T07:07:27;142.73;;;42.05;;
15536;SDS011;7870;52.448;13.270;2023-02-15T07:09:53;162.07;;;44.88;;
15536;SDS011;7870;52.448;13.270;2023-02-15T07:12:20;154.68;;;44.50;;
15536;SDS011;7870;52.448;13.270;2023-02-15T07:15:05;106.85;;;41.80;;
15536;SDS011;7870;52.448;13.270;2023-02-15T07:17:33;153.52;;;45.40;;
15536;SDS011;7870;52.448;13.270;2023-02-15T07:20:03;154.65;;;44.90;;
15536;SDS011;7870;52.448;13.270;2023-02-15T07:22:31;450.48;;;67.38;;
15536;SDS011;7870;52.448;13.270;2023-02-15T07:24:57;350.23;;;65.05;;
15536;SDS011;7870;52.448;13.270;2023-02-15T07:27:24;315.88;;;55.20;;
15536;SDS011;7870;52.448;13.270;2023-02-15T07:29:50;91.28;;;40.47;;
15536;SDS011;7870;52.448;13.270;2023-02-15T07:32:17;108.60;;;40.13;;
15536;SDS011;7870;52.448;13.270;2023-02-15T07:34:43;123.38;;;41.60;;
15536;SDS011;7870;52.448;13.270;2023-02-15T07:37:10;323.08;;;58.53;;
15536;SDS011;7870;52.448;13.270;2023-02-15T07:39:40;438.77;;;66.57;;
15536;SDS011;7870;52.448;13.270;2023-02-15T07:42:07;338.00;;;55.80;;
15536;SDS011;7870;52.448;13.270;2023-02-15T07:44:35;139.52;;;41.50;;
15536;SDS011;7870;52.448;13.270;2023-02-15T07:47:01;252.75;;;50.97;;
15536;SDS011;7870;52.448;13.270;2023-02-15T07:49:28;277.88;;;48.72;;
15536;SDS011;7870;52.448;13.270;2023-02-15T07:51:55;203.85;;;44.00;;
15536;SDS011;7870;52.448;13.270;2023-02-15T07:54:21;330.08;;;56.17;;
15536;SDS011;7870;52.448;13.270;2023-02-15T07:56:48;407.58;;;64.55;;
15536;SDS011;7870;52.448;13.270;2023-02-15T07:59:14;138.18;;;40.28;;
15536;SDS011;7870;52.448;13.270;2023-02-15T08:01:41;129.20;;;37.75;;
15536;SDS011;7870;52.448;13.270;2023-02-15T08:04:07;113.00;;;39.05;;
15536;SDS011;7870;52.448;13.270;2023-02-15T08:06:35;361.63;;;63.10;;
15536;SDS011;7870;52.448;13.270;2023-02-15T08:09:03;125.13;;;36.40;;
15536;SDS011;7870;52.448;13.270;2023-02-15T08:11:32;131.02;;;38.80;;
15536;SDS011;7870;52.448;13.270;2023-02-15T08:14:04;309.30;;;53.13;;
15536;SDS011;7870;52.448;13.270;2023-02-15T08:19:13;96.63;;;36.08;;
15536;SDS011;7870;52.448;13.270;2023-02-15T08:21:41;119.85;;;37.92;;
15536;SDS011;7870;52.448;13.270;2023-02-15T08:24:09;202.93;;;42.33;;
15536;SDS011;7870;52.448;13.270;2023-02-15T08:26:37;180.45;;;41.78;;
15536;SDS011;7870;52.448;13.270;2023-02-15T08:29:07;176.32;;;40.28;;
15536;SDS011;7870;52.448;13.270;2023-02-15T08:31:35;118.20;;;38.55;;
15536;SDS011;7870;52.448;13.270;2023-02-15T08:34:03;140.82;;;38.90;;
15536;SDS011;7870;52.448;13.270;2023-02-15T08:36:30;142.65;;;45.00;;
15536;SDS011;7870;52.448;13.270;2023-02-15T08:39:01;110.13;;;38.47;;
15536;SDS011;7870;52.448;13.270;2023-02-15T08:41:29;273.52;;;49.60;;
15536;SDS011;7870;52.448;13.270;2023-02-15T08:43:58;270.25;;;51.88;;
15536;SDS011;7870;52.448;13.270;2023-02-15T08:46:26;201.45;;;44.67;;
15536;SDS011;7870;52.448;13.270;2023-02-15T08:48:54;128.88;;;39.55;;
15536;SDS011;7870;52.448;13.270;2023-02-15T08:51:21;65.53;;;36.67;;
15536;SDS011;7870;52.448;13.270;2023-02-15T08:53:51;110.32;;;34.85;;
15536;SDS011;7870;52.448;13.270;2023-02-15T08:56:20;75.40;;;34.10;;
15536;SDS011;7870;52.448;13.270;2023-02-15T08:58:49;120.05;;;37.53;;
15536;SDS011;7870;52.448;13.270;2023-02-15T09:01:17;106.22;;;37.60;;
15536;SDS011;7870;52.448;13.270;2023-02-15T09:03:47;222.70;;;51.55;;
15536;SDS011;7870;52.448;13.270;2023-02-15T09:06:16;130.93;;;43.67;;
15536;SDS011;7870;52.448;13.270;2023-02-15T09:08:42;76.78;;;34.28;;
15536;SDS011;7870;52.448;13.270;2023-02-15T09:11:10;54.88;;;34.50;;
15536;SDS011;7870;52.448;13.270;2023-02-15T09:13:39;54.47;;;31.33;;
15536;SDS011;7870;52.448;13.270;2023-02-15T09:16:07;52.80;;;32.50;;
15536;SDS011;7870;52.448;13.270;2023-02-15T09:18:36;64.40;;;32.03;;
15536;SDS011;7870;52.448;13.270;2023-02-15T09:21:04;67.90;;;32.67;;
15536;SDS011;7870;52.448;13.270;2023-02-15T09:23:34;59.70;;;32.55;;
15536;SDS011;7870;52.448;13.270;2023-02-15T09:26:05;51.65;;;34.33;;
15536;SDS011;7870;52.448;13.270;2023-02-15T09:28:33;53.60;;;32.92;;
15536;SDS011;7870;52.448;13.270;2023-02-15T09:31:06;63.92;;;32.28;;
15536;SDS011;7870;52.448;13.270;2023-02-15T09:33:34;52.65;;;32.70;;
15536;SDS011;7870;52.448;13.270;2023-02-15T09:36:02;61.80;;;34.10;;
15536;SDS011;7870;52.448;13.270;2023-02-15T09:38:29;51.83;;;32.72;;
15536;SDS011;7870;52.448;13.270;2023-02-15T09:41:12;46.00;;;29.42;;
15536;SDS011;7870;52.448;13.270;2023-02-15T09:44:14;44.65;;;30.75;;
15536;SDS011;7870;52.448;13.270;2023-02-15T09:49:44;46.05;;;31.73;;
15536;SDS011;7870;52.448;13.270;2023-02-15T10:01:06;43.70;;;30.50;;
15536;SDS011;7870;52.448;13.270;2023-02-15T10:06:35;43.10;;;29.90;;
15536;SDS011;7870;52.448;13.270;2023-02-15T10:09:20;40.15;;;29.15;;
15536;SDS011;7870;52.448;13.270;2023-02-15T10:12:03;42.38;;;30.38;;
15536;SDS011;7870;52.448;13.270;2023-02-15T10:20:20;43.35;;;31.25;;
15536;SDS011;7870;52.448;13.270;2023-02-15T10:22:58;42.80;;;31.65;;
15536;SDS011;7870;52.448;13.270;2023-02-15T10:25:43;44.88;;;32.53;;
15536;SDS011;7870;52.448;13.270;2023-02-15T10:28:16;44.22;;;32.28;;
15536;SDS011;7870;52.448;13.270;2023-02-15T10:30:48;47.45;;;33.13;;
15536;SDS011;7870;52.448;13.270;2023-02-15T10:33:24;46.53;;;34.17;;
15536;SDS011;7870;52.448;13.270;2023-02-15T10:36:05;45.58;;;31.15;;
15536;SDS011;7870;52.448;13.270;2023-02-15T10:39:02;50.92;;;32.92;;
15536;SDS011;7870;52.448;13.270;2023-02-15T10:44:55;45.72;;;34.83;;
15536;SDS011;7870;52.448;13.270;2023-02-15T10:48:06;46.70;;;32.97;;
15536;SDS011;7870;52.448;13.270;2023-02-15T10:50:51;48.50;;;35.35;;
15536;SDS011;7870;52.448;13.270;2023-02-15T10:55:51;50.50;;;35.58;;
15536;SDS011;7870;52.448;13.270;2023-02-15T11:01:18;48.80;;;34.45;;
15536;SDS011;7870;52.448;13.270;2023-02-15T11:06:50;45.88;;;33.40;;
15536;SDS011;7870;52.448;13.270;2023-02-15T11:09:20;41.22;;;31.52;;
15536;SDS011;7870;52.448;13.270;2023-02-15T11:11:49;43.30;;;32.72;;
15536;SDS011;7870;52.448;13.270;2023-02-15T11:14:20;42.97;;;31.15;;
15536;SDS011;7870;52.448;13.270;2023-02-15T11:16:51;42.53;;;31.05;;
15536;SDS011;7870;52.448;13.270;2023-02-15T11:19:25;44.40;;;32.50;;
15536;SDS011;7870;52.448;13.270;2023-02-15T11:21:57;41.90;;;30.27;;
15536;SDS011;7870;52.448;13.270;2023-02-15T11:24:26;42.45;;;30.45;;
15536;SDS011;7870;52.448;13.270;2023-02-15T11:26:56;37.05;;;29.67;;
15536;SDS011;7870;52.448;13.270;2023-02-15T11:32:02;41.22;;;30.30;;
15536;SDS011;7870;52.448;13.270;2023-02-15T11:34:39;39.78;;;30.30;;
15536;SDS011;7870;52.448;13.270;2023-02-15T11:37:13;34.50;;;26.95;;
15536;SDS011;7870;52.448;13.270;2023-02-15T11:39:43;37.35;;;31.05;;
15536;SDS011;7870;52.448;13.270;2023-02-15T11:42:14;37.78;;;31.35;;
15536;SDS011;7870;52.448;13.270;2023-02-15T11:44:43;38.33;;;29.95;;
15536;SDS011;7870;52.448;13.270;2023-02-15T11:47:18;37.20;;;30.05;;
15536;SDS011;7870;52.448;13.270;2023-02-15T11:49:44;34.53;;;27.92;;
15536;SDS011;7870;52.448;13.270;2023-02-15T11:52:12;40.15;;;27.05;;
15536;SDS011;7870;52.448;13.270;2023-02-15T11:54:40;34.08;;;27.80;;
15536;SDS011;7870;52.448;13.270;2023-02-15T11:57:14;34.00;;;27.75;;
15536;SDS011;7870;52.448;13.270;2023-02-15T11:59:46;33.88;;;28.23;;
15536;SDS011;7870;52.448;13.270;2023-02-15T12:02:17;32.85;;;26.80;;
15536;SDS011;7870;52.448;13.270;2023-02-15T12:05:20;34.65;;;26.98;;
15536;SDS011;7870;52.448;13.270;2023-02-15T12:07:41;31.77;;;28.20;;
15536;SDS011;7870;52.448;13.270;2023-02-15T12:10:17;35.92;;;28.20;;
15536;SDS011;7870;52.448;13.270;2023-02-15T12:12:47;31.00;;;26.63;;
15536;SDS011;7870;52.448;13.270;2023-02-15T12:15:13;31.00;;;26.00;;
15536;SDS011;7870;52.448;13.270;2023-02-15T12:17:41;34.17;;;25.73;;
15536;SDS011;7870;52.448;13.270;2023-02-15T12:22:51;30.73;;;23.95;;
15536;SDS011;7870;52.448;13.270;2023-02-15T12:25:36;30.42;;;24.50;;
15536;SDS011;7870;52.448;13.270;2023-02-15T12:28:05;32.88;;;26.38;;
15536;SDS011;7870;52.448;13.270;2023-02-15T12:30:46;31.48;;;24.42;;
15536;SDS011;7870;52.448;13.270;2023-02-15T12:33:14;30.88;;;24.80;;
15536;SDS011;7870;52.448;13.270;2023-02-15T12:35:44;29.23;;;23.20;;
15536;SDS011;7870;52.448;13.270;2023-02-15T12:40:41;27.35;;;23.75;;
15536;SDS011;7870;52.448;13.270;2023-02-15T12:43:28;25.08;;;21.98;;
15536;SDS011;7870;52.448;13.270;2023-02-15T12:46:14;27.60;;;21.75;;
15536;SDS011;7870;52.448;13.270;2023-02-15T12:48:47;25.38;;;22.60;;
15536;SDS011;7870;52.448;13.270;2023-02-15T12:51:14;26.08;;;23.27;;
15536;SDS011;7870;52.448;13.270;2023-02-15T12:53:41;24.77;;;21.73;;
15536;SDS011;7870;52.448;13.270;2023-02-15T12:56:10;27.95;;;23.50;;
15536;SDS011;7870;52.448;13.270;2023-02-15T12:58:38;24.30;;;21.63;;
15536;SDS011;7870;52.448;13.270;2023-02-15T13:03:50;24.45;;;21.13;;
15536;SDS011;7870;52.448;13.270;2023-02-15T13:06:21;24.38;;;21.63;;
15536;SDS011;7870;52.448;13.270;2023-02-15T13:08:49;24.77;;;21.95;;
15536;SDS011;7870;52.448;13.270;2023-02-15T13:11:29;25.35;;;20.55;;
15536;SDS011;7870;52.448;13.270;2023-02-15T13:14:01;23.52;;;20.58;;
15536;SDS011;7870;52.448;13.270;2023-02-15T13:16:33;21.40;;;19.20;;
15536;SDS011;7870;52.448;13.270;2023-02-15T13:22:08;25.58;;;21.08;;
15536;SDS011;7870;52.448;13.270;2023-02-15T13:24:41;22.50;;;19.65;;
15536;SDS011;7870;52.448;13.270;2023-02-15T13:27:10;23.37;;;19.17;;
15536;SDS011;7870;52.448;13.270;2023-02-15T13:29:43;20.40;;;17.88;;
15536;SDS011;7870;52.448;13.270;2023-02-15T13:32:25;21.08;;;18.88;;
15536;SDS011;7870;52.448;13.270;2023-02-15T13:34:56;22.63;;;19.40;;
15536;SDS011;7870;52.448;13.270;2023-02-15T13:43:25;19.52;;;17.23;;
15536;SDS011;7870;52.448;13.270;2023-02-15T13:46:07;18.85;;;16.13;;
15536;SDS011;7870;52.448;13.270;2023-02-15T13:48:46;21.88;;;17.77;;
15536;SDS011;7870;52.448;13.270;2023-02-15T13:51:55;19.60;;;17.48;;
15536;SDS011;7870;52.448;13.270;2023-02-15T13:54:48;24.27;;;20.20;;
15536;SDS011;7870;52.448;13.270;2023-02-15T14:11:05;19.00;;;17.00;;
15536;SDS011;7870;52.448;13.270;2023-02-15T14:13:56;19.48;;;17.23;;
15536;SDS011;7870;52.448;13.270;2023-02-15T14:22:15;17.42;;;15.18;;
15536;SDS011;7870;52.448;13.270;2023-02-15T14:24:57;16.25;;;13.98;;
15536;SDS011;7870;52.448;13.270;2023-02-15T14:27:42;16.05;;;14.27;;
15536;SDS011;7870;52.448;13.270;2023-02-15T14:30:15;17.13;;;14.75;;
15536;SDS011;7870;52.448;13.270;2023-02-15T14:33:06;17.23;;;14.23;;
15536;SDS011;7870;52.448;13.270;2023-02-15T14:36:13;16.20;;;14.45;;
15536;SDS011;7870;52.448;13.270;2023-02-15T14:38:53;17.38;;;14.13;;
15536;SDS011;7870;52.448;13.270;2023-02-15T14:41:35;16.90;;;14.65;;
15536;SDS011;7870;52.448;13.270;2023-02-15T14:44:21;17.65;;;15.80;;
15536;SDS011;7870;52.448;13.270;2023-02-15T14:49:25;19.15;;;15.50;;
15536;SDS011;7870;52.448;13.270;2023-02-15T14:51:54;18.05;;;14.25;;
15536;SDS011;7870;52.448;13.270;2023-02-15T14:59:39;18.42;;;14.30;;
15536;SDS011;7870;52.448;13.270;2023-02-15T15:02:12;16.55;;;14.32;;
15536;SDS011;7870;52.448;13.270;2023-02-15T15:04:55;17.88;;;13.43;;
15536;SDS011;7870;52.448;13.270;2023-02-15T15:07:35;15.05;;;13.23;;
15536;SDS011;7870;52.448;13.270;2023-02-15T15:10:06;14.35;;;12.20;;
15536;SDS011;7870;52.448;13.270;2023-02-15T15:15:33;13.82;;;11.80;;
15536;SDS011;7870;52.448;13.270;2023-02-15T15:18:07;14.30;;;12.00;;
15536;SDS011;7870;52.448;13.270;2023-02-15T15:20:45;13.38;;;10.80;;
15536;SDS011;7870;52.448;13.270;2023-02-15T15:25:47;12.75;;;9.95;;
15536;SDS011;7870;52.448;13.270;2023-02-15T15:36:39;14.07;;;10.57;;
15536;SDS011;7870;52.448;13.270;2023-02-15T15:39:39;12.95;;;9.23;;
15536;SDS011;7870;52.448;13.270;2023-02-15T15:51:21;10.70;;;9.60;;
15536;SDS011;7870;52.448;13.270;2023-02-15T15:53:54;11.13;;;9.70;;
15536;SDS011;7870;52.448;13.270;2023-02-15T15:56:26;12.07;;;10.10;;
15536;SDS011;7870;52.448;13.270;2023-02-15T15:58:56;13.52;;;10.73;;
15536;SDS011;7870;52.448;13.270;2023-02-15T16:01:26;12.52;;;10.05;;
15536;SDS011;7870;52.448;13.270;2023-02-15T16:03:55;12.32;;;10.43;;
15536;SDS011;7870;52.448;13.270;2023-02-15T16:06:35;12.63;;;10.52;;
15536;SDS011;7870;52.448;13.270;2023-02-15T16:11:38;12.02;;;10.02;;
15536;SDS011;7870;52.448;13.270;2023-02-15T16:14:13;16.20;;;10.55;;
15536;SDS011;7870;52.448;13.270;2023-02-15T16:16:45;16.17;;;10.93;;
15536;SDS011;7870;52.448;13.270;2023-02-15T16:19:17;11.35;;;10.15;;
15536;SDS011;7870;52.448;13.270;2023-02-15T16:21:48;11.68;;;10.32;;
15536;SDS011;7870;52.448;13.270;2023-02-15T16:29:37;21.23;;;10.10;;
15536;SDS011;7870;52.448;13.270;2023-02-15T16:32:05;18.05;;;11.48;;
15536;SDS011;7870;52.448;13.270;2023-02-15T16:34:53;20.38;;;12.18;;
15536;SDS011;7870;52.448;13.270;2023-02-15T16:37:23;16.27;;;11.75;;
15536;SDS011;7870;52.448;13.270;2023-02-15T16:39:54;19.08;;;11.93;;
15536;SDS011;7870;52.448;13.270;2023-02-15T16:42:21;15.05;;;11.40;;
15536;SDS011;7870;52.448;13.270;2023-02-15T16:44:54;20.80;;;12.70;;
15536;SDS011;7870;52.448;13.270;2023-02-15T16:47:24;18.98;;;12.30;;
15536;SDS011;7870;52.448;13.270;2023-02-15T16:49:55;28.88;;;13.43;;
15536;SDS011;7870;52.448;13.270;2023-02-15T16:52:24;21.98;;;13.13;;
15536;SDS011;7870;52.448;13.270;2023-02-15T16:54:54;31.63;;;13.95;;
15536;SDS011;7870;52.448;13.270;2023-02-15T16:57:27;22.00;;;12.65;;
15536;SDS011;7870;52.448;13.270;2023-02-15T16:59:59;21.30;;;12.45;;